Time;durP1;ratioP1;P1;durP2;ratioP2;P2;SDS_P1;SDS_P2;PMS_P1;PMS_P2;Temp;Humidity;BMP_temperature;BMP_pressure;BME280_temperature;BME280_humidity;BME280_pressure;Samples;Min_cycle;Max_cycle;Signal;HPM_P1;HPM_P2
2022/07/21 00:01:34;;;;;;;13.95;6.85;;;21.50;99.90;;;;;;5011532;28;20374;-83
2022/07/21 00:03:59;;;;;;;18.02;6.45;;;21.50;99.90;;;;;;5028114;28;20390;-83
2022/07/21 00:06:25;;;;;;;14.93;7.05;;;21.50;99.90;;;;;;5028545;28;20393;-83
2022/07/21 00:08:51;;;;;;;15.53;7.10;;;21.50;99.90;;;;;;5026905;28;20461;-83
2022/07/21 00:11:17;;;;;;;17.13;6.93;;;21.50;99.90;;;;;;5030611;28;20399;-83
2022/07/21 00:13:42;;;;;;;15.73;7.37;;;21.60;99.90;;;;;;5009607;28;20398;-82
2022/07/21 00:16:08;;;;;;;12.45;7.25;;;21.60;99.90;;;;;;5009593;28;20477;-83
2022/07/21 00:18:34;;;;;;;12.80;6.63;;;21.70;99.90;;;;;;5026893;28;20382;-82
2022/07/21 00:21:00;;;;;;;12.32;6.80;;;21.70;99.90;;;;;;5010092;28;20432;-84
2022/07/21 00:23:27;;;;;;;10.15;6.70;;;21.70;99.90;;;;;;5025704;28;20385;-82
2022/07/21 00:25:54;;;;;;;11.88;6.60;;;21.70;99.90;;;;;;5012022;28;20516;-84
2022/07/21 00:28:20;;;;;;;10.23;6.03;;;21.80;99.90;;;;;;5010847;28;20382;-83
2022/07/21 00:30:47;;;;;;;9.73;5.80;;;21.80;99.90;;;;;;5010856;28;20404;-83
2022/07/21 00:33:12;;;;;;;14.60;6.97;;;21.80;99.90;;;;;;5028736;28;20981;-83
2022/07/21 00:35:38;;;;;;;13.73;6.53;;;21.90;99.90;;;;;;5010291;28;20378;-83
2022/07/21 00:38:04;;;;;;;10.35;6.50;;;21.90;99.90;;;;;;5011672;28;20393;-83
2022/07/21 00:40:30;;;;;;;8.43;6.03;;;21.80;99.90;;;;;;5028954;28;20401;-83
2022/07/21 00:42:56;;;;;;;9.40;6.13;;;21.80;99.90;;;;;;5011785;28;20385;-83
2022/07/21 00:45:22;;;;;;;11.10;6.23;;;21.80;99.90;;;;;;5011044;28;20429;-84
2022/07/21 00:47:48;;;;;;;9.02;6.28;;;21.70;99.90;;;;;;5029790;28;20864;-83
2022/07/21 00:50:17;;;;;;;10.63;6.68;;;21.70;99.90;;;;;;5029537;28;20903;-83
2022/07/21 00:52:44;;;;;;;9.48;6.30;;;21.60;99.90;;;;;;5008779;28;20481;-83
2022/07/21 00:55:19;;;;;;;10.57;6.68;;;21.60;99.90;;;;;;5028923;28;20428;-83
2022/07/21 00:57:45;;;;;;;11.35;6.50;;;21.60;99.90;;;;;;5026575;28;20465;-83
2022/07/21 01:00:31;;;;;;;7.97;5.78;;;21.50;99.90;;;;;;5010693;28;20424;-83
2022/07/21 01:02:58;;;;;;;7.55;5.95;;;21.40;99.90;;;;;;5009966;28;20385;-84
2022/07/21 01:05:24;;;;;;;9.27;6.32;;;21.40;99.90;;;;;;5011263;28;20381;-83
2022/07/21 01:07:54;;;;;;;7.78;6.72;;;21.40;99.90;;;;;;5029116;28;20391;-83
2022/07/21 01:10:23;;;;;;;8.13;6.22;;;21.40;99.90;;;;;;5029360;28;20377;-84
2022/07/21 01:12:50;;;;;;;9.95;6.93;;;21.40;99.90;;;;;;5029527;28;20389;-84
2022/07/21 01:15:16;;;;;;;8.70;6.28;;;21.40;99.90;;;;;;5011311;28;20926;-84
2022/07/21 01:17:43;;;;;;;8.32;6.70;;;21.40;99.90;;;;;;5012056;28;20447;-84
2022/07/21 01:20:13;;;;;;;6.97;6.18;;;21.40;99.90;;;;;;5029940;28;20914;-83
2022/07/21 01:22:41;;;;;;;9.85;6.30;;;21.40;99.90;;;;;;5010439;28;20393;-83
2022/07/21 01:25:07;;;;;;;8.32;6.28;;;21.40;99.90;;;;;;5029644;28;20433;-83
2022/07/21 01:27:33;;;;;;;8.15;6.38;;;21.40;99.90;;;;;;5029270;28;20440;-84
2022/07/21 01:29:59;;;;;;;9.07;6.93;;;21.50;99.90;;;;;;5010836;28;20780;-83
2022/07/21 01:32:25;;;;;;;8.95;6.20;;;21.50;99.90;;;;;;5028359;28;20428;-83
2022/07/21 01:34:51;;;;;;;11.23;6.82;;;21.50;99.90;;;;;;5010838;28;20381;-84
2022/07/21 01:37:27;;;;;;;9.98;5.95;;;21.50;99.90;;;;;;5011250;28;20378;-85
2022/07/21 01:42:37;;;;;;;7.57;6.25;;;21.60;99.90;;;;;;5028520;28;20389;-83
2022/07/21 01:45:04;;;;;;;9.23;6.40;;;21.60;99.90;;;;;;5011655;28;20402;-83
2022/07/21 01:47:30;;;;;;;8.70;6.03;;;21.60;99.90;;;;;;5028979;28;20395;-82
2022/07/21 01:49:56;;;;;;;7.40;6.00;;;21.60;99.90;;;;;;5029338;28;20859;-82
2022/07/21 01:52:22;;;;;;;7.45;6.32;;;21.60;99.90;;;;;;5029030;28;20444;-86
2022/07/21 01:54:48;;;;;;;23.67;8.13;;;21.60;99.90;;;;;;5029470;28;20432;-82
2022/07/21 01:57:14;;;;;;;21.30;7.13;;;21.70;99.90;;;;;;5029133;28;20381;-83
2022/07/21 01:59:39;;;;;;;9.70;6.00;;;21.80;99.90;;;;;;5029155;28;20417;-85
2022/07/21 02:02:05;;;;;;;8.90;6.50;;;21.90;99.90;;;;;;5028820;28;20377;-83
2022/07/21 02:04:31;;;;;;;8.07;5.93;;;21.90;99.90;;;;;;5029450;28;20374;-82
2022/07/21 02:06:56;;;;;;;7.30;5.33;;;21.90;99.90;;;;;;5029111;28;20390;-83
2022/07/21 02:09:22;;;;;;;11.30;5.53;;;22.00;99.90;;;;;;5011613;28;20500;-83
2022/07/21 02:11:48;;;;;;;9.18;5.40;;;22.10;99.90;;;;;;5028713;28;20389;-84
2022/07/21 02:14:13;;;;;;;7.57;5.43;;;22.20;99.90;;;;;;5029129;28;20385;-83
2022/07/21 02:16:39;;;;;;;8.85;5.43;;;22.30;99.90;;;;;;5028755;28;20895;-83
2022/07/21 02:19:05;;;;;;;7.53;5.43;;;22.40;99.90;;;;;;5011251;28;20377;-82
2022/07/21 02:21:30;;;;;;;8.07;5.68;;;22.40;99.80;;;;;;5011224;28;20736;-84
2022/07/21 02:23:56;;;;;;;8.60;5.53;;;22.40;99.40;;;;;;5029034;28;20377;-81
2022/07/21 02:26:22;;;;;;;6.90;4.85;;;22.50;99.10;;;;;;5028855;28;20405;-84
2022/07/21 02:28:47;;;;;;;9.37;5.50;;;22.50;99.10;;;;;;5028791;28;20405;-83
2022/07/21 02:31:13;;;;;;;10.15;5.63;;;22.60;99.10;;;;;;5028251;28;20447;-83
2022/07/21 02:33:39;;;;;;;10.55;5.47;;;22.50;99.20;;;;;;5011201;28;20402;-83
2022/07/21 02:36:05;;;;;;;10.57;5.33;;;22.50;98.80;;;;;;5028670;28;20369;-83
2022/07/21 02:38:31;;;;;;;7.93;5.18;;;22.60;98.60;;;;;;5028838;28;20465;-83
2022/07/21 02:40:56;;;;;;;6.43;5.03;;;22.60;98.30;;;;;;5028631;28;20535;-82
2022/07/21 02:43:24;;;;;;;7.57;4.97;;;22.70;98.10;;;;;;5028973;28;20464;-82
2022/07/21 02:45:50;;;;;;;6.20;4.97;;;22.90;97.60;;;;;;5010608;28;20484;-83
2022/07/21 02:48:15;;;;;;;5.50;4.72;;;23.00;97.40;;;;;;5028675;28;20595;-83
2022/07/21 02:50:43;;;;;;;7.70;4.97;;;23.10;97.30;;;;;;5028195;28;20473;-83
2022/07/21 02:53:14;;;;;;;6.85;4.90;;;23.10;97.10;;;;;;5010907;28;20384;-83
2022/07/21 02:55:40;;;;;;;8.20;4.73;;;23.10;97.20;;;;;;5010815;28;20922;-84
2022/07/21 02:58:17;;;;;;;6.05;4.75;;;23.10;97.50;;;;;;5011687;28;20385;-83
2022/07/21 03:00:50;;;;;;;6.43;4.43;;;23.00;97.70;;;;;;5031266;28;20405;-82
2022/07/21 03:03:15;;;;;;;6.85;5.07;;;22.90;97.90;;;;;;5032081;28;20470;-82
2022/07/21 03:05:41;;;;;;;9.83;4.90;;;22.90;98.20;;;;;;5031577;28;20377;-83
2022/07/21 03:08:08;;;;;;;6.72;4.95;;;22.80;98.20;;;;;;5012865;28;20393;-84
2022/07/21 03:10:35;;;;;;;9.47;5.07;;;22.80;98.20;;;;;;5011379;28;20373;-82
2022/07/21 03:13:00;;;;;;;7.13;4.93;;;22.70;98.30;;;;;;5031885;28;20400;-82
2022/07/21 03:15:26;;;;;;;7.53;5.07;;;22.60;98.30;;;;;;5031501;28;20377;-83
2022/07/21 03:17:53;;;;;;;7.80;4.93;;;22.60;98.10;;;;;;5014258;28;20444;-83
2022/07/21 03:20:19;;;;;;;7.43;4.60;;;22.60;98.40;;;;;;5031310;28;20397;-83
2022/07/21 03:22:44;;;;;;;7.18;4.55;;;22.60;98.20;;;;;;5031380;28;20378;-83
2022/07/21 03:25:10;;;;;;;10.35;5.40;;;22.60;98.30;;;;;;5014176;28;20756;-83
2022/07/21 03:27:36;;;;;;;12.40;5.05;;;22.60;98.40;;;;;;5031392;28;20385;-83
2022/07/21 03:30:09;;;;;;;8.10;4.93;;;22.50;98.20;;;;;;5013935;28;20386;-82
2022/07/21 03:32:35;;;;;;;5.43;4.57;;;22.50;98.40;;;;;;5031269;28;20390;-83
2022/07/21 03:35:02;;;;;;;7.18;5.07;;;22.60;98.40;;;;;;5013827;28;20389;-83
2022/07/21 03:37:27;;;;;;;8.45;4.70;;;22.60;98.30;;;;;;5031629;28;21120;-83
2022/07/21 03:39:53;;;;;;;12.53;5.23;;;22.50;98.40;;;;;;5031387;28;20755;-82
2022/07/21 03:42:19;;;;;;;7.25;4.72;;;22.50;98.70;;;;;;5031194;28;20959;-82
2022/07/21 03:44:45;;;;;;;5.20;4.50;;;22.50;98.70;;;;;;5031317;28;21291;-82
2022/07/21 03:47:10;;;;;;;7.47;5.30;;;22.50;98.70;;;;;;5031456;28;20388;-81
2022/07/21 03:49:36;;;;;;;7.20;5.40;;;22.50;98.90;;;;;;5031469;28;20408;-82
2022/07/21 03:52:02;;;;;;;5.78;4.43;;;22.40;99.10;;;;;;5030773;28;20404;-82
2022/07/21 03:54:28;;;;;;;8.77;5.15;;;22.40;99.10;;;;;;5013748;28;20386;-84
2022/07/21 03:56:53;;;;;;;5.20;4.63;;;22.40;99.00;;;;;;5031503;28;20890;-84
2022/07/21 03:59:19;;;;;;;5.80;5.13;;;22.40;99.30;;;;;;5013162;28;20464;-83
2022/07/21 04:01:44;;;;;;;7.25;5.13;;;22.40;99.40;;;;;;5012803;28;20960;-83
2022/07/21 04:04:10;;;;;;;9.77;4.97;;;22.40;99.80;;;;;;5013203;28;20380;-83
2022/07/21 04:06:36;;;;;;;10.27;5.38;;;22.30;99.60;;;;;;5031147;28;20481;-82
2022/07/21 04:09:02;;;;;;;7.82;5.28;;;22.30;99.50;;;;;;5013139;28;20373;-84
2022/07/21 04:11:30;;;;;;;9.18;5.00;;;22.30;99.40;;;;;;5013203;28;20388;-84
2022/07/21 04:13:56;;;;;;;8.70;5.20;;;22.40;99.00;;;;;;5031112;28;20507;-83
2022/07/21 04:16:21;;;;;;;11.32;5.18;;;22.40;99.10;;;;;;5029981;28;20411;-83
2022/07/21 04:18:47;;;;;;;5.50;4.70;;;22.60;99.50;;;;;;5013781;28;20922;-83
2022/07/21 04:21:13;;;;;;;10.07;5.20;;;22.60;99.20;;;;;;5031124;28;20493;-84
2022/07/21 04:23:38;;;;;;;11.13;6.20;;;22.70;98.90;;;;;;5031957;28;21150;-83
2022/07/21 04:26:04;;;;;;;17.75;7.60;;;22.70;99.00;;;;;;5013585;28;20389;-82
2022/07/21 04:28:29;;;;;;;13.07;8.70;;;22.70;99.20;;;;;;5013078;28;20449;-82
2022/07/21 04:30:55;;;;;;;12.87;9.70;;;22.70;99.50;;;;;;5031144;28;20382;-83
2022/07/21 04:33:21;;;;;;;15.25;11.25;;;22.70;99.90;;;;;;5030714;28;20393;-83
2022/07/21 04:35:46;;;;;;;18.03;13.70;;;22.60;99.90;;;;;;5013606;28;20385;-83
2022/07/21 04:38:12;;;;;;;19.13;15.20;;;22.80;99.90;;;;;;5013367;28;20384;-83
2022/07/21 04:40:38;;;;;;;18.13;15.15;;;22.90;99.90;;;;;;5030503;28;20411;-82
2022/07/21 04:43:03;;;;;;;19.47;15.93;;;22.90;99.90;;;;;;5031210;28;20468;-83
2022/07/21 04:45:29;;;;;;;24.05;17.27;;;22.90;99.90;;;;;;5013244;28;20393;-84
2022/07/21 04:47:55;;;;;;;22.33;15.70;;;23.00;99.90;;;;;;5013377;28;20943;-84
2022/07/21 04:50:23;;;;;;;21.10;17.15;;;23.00;99.90;;;;;;5014585;28;20424;-83
2022/07/21 04:52:49;;;;;;;18.25;16.27;;;23.10;99.90;;;;;;5032378;28;20389;-82
2022/07/21 04:55:15;;;;;;;20.58;17.20;;;23.40;99.90;;;;;;5013440;28;20385;-82
2022/07/21 04:57:44;;;;;;;19.83;17.73;;;23.50;99.90;;;;;;5031486;28;20427;-83
2022/07/21 05:00:13;;;;;;;24.80;18.50;;;23.60;99.90;;;;;;5014448;28;20417;-85
2022/07/21 05:02:39;;;;;;;23.58;18.85;;;23.60;99.90;;;;;;5031374;28;20421;-84
2022/07/21 05:05:06;;;;;;;26.08;19.52;;;23.70;99.90;;;;;;5013797;28;20966;-83
2022/07/21 05:07:31;;;;;;;23.63;19.57;;;23.70;99.90;;;;;;5030772;28;20390;-84
2022/07/21 05:09:58;;;;;;;26.35;19.15;;;23.70;99.90;;;;;;5031451;28;20951;-84
2022/07/21 05:12:27;;;;;;;23.67;19.57;;;23.80;99.90;;;;;;5012919;28;20420;-82
2022/07/21 05:14:53;;;;;;;24.65;19.75;;;24.00;99.90;;;;;;5030966;28;20381;-83
2022/07/21 05:17:18;;;;;;;22.17;19.43;;;24.00;99.90;;;;;;5029444;28;20492;-83
2022/07/21 05:19:48;;;;;;;23.70;19.42;;;24.10;99.90;;;;;;5029685;28;20416;-84
2022/07/21 05:22:14;;;;;;;21.05;18.77;;;24.10;99.90;;;;;;5011151;28;20926;-83
2022/07/21 05:24:39;;;;;;;22.77;19.63;;;24.00;99.90;;;;;;5014358;28;20409;-83
2022/07/21 05:27:05;;;;;;;23.25;19.45;;;24.00;99.90;;;;;;5031974;28;20391;-83
2022/07/21 05:29:31;;;;;;;24.07;20.00;;;24.10;99.90;;;;;;5030424;28;20381;-83
2022/07/21 05:31:56;;;;;;;30.38;20.98;;;24.10;99.90;;;;;;5030900;28;20439;-82
2022/07/21 05:34:22;;;;;;;28.20;21.02;;;24.20;99.90;;;;;;5032632;28;20460;-82
2022/07/21 05:36:47;;;;;;;26.20;20.80;;;24.20;99.90;;;;;;5013274;28;20468;-83
2022/07/21 05:39:13;;;;;;;26.50;19.65;;;24.10;99.90;;;;;;5013042;28;20428;-82
2022/07/21 05:41:39;;;;;;;23.13;20.55;;;24.10;99.90;;;;;;5029549;28;20802;-83
2022/07/21 05:44:05;;;;;;;23.83;20.40;;;23.90;99.90;;;;;;5031140;28;20369;-83
2022/07/21 05:46:30;;;;;;;23.93;20.20;;;23.70;99.90;;;;;;5032062;28;20487;-82
2022/07/21 05:48:56;;;;;;;23.35;19.17;;;23.80;99.90;;;;;;5029904;28;20403;-85
2022/07/21 05:51:22;;;;;;;22.90;18.67;;;23.90;99.90;;;;;;5012326;28;20388;-83
2022/07/21 05:53:47;;;;;;;21.17;17.67;;;24.00;99.90;;;;;;5029613;28;20451;-83
2022/07/21 05:56:13;;;;;;;22.73;17.13;;;24.10;99.90;;;;;;5030040;28;20897;-82
2022/07/21 05:58:38;;;;;;;20.80;16.38;;;24.20;99.90;;;;;;5031811;28;20373;-83
2022/07/21 06:01:12;;;;;;;18.17;15.73;;;24.20;99.90;;;;;;5029603;28;20412;-84
2022/07/21 06:03:51;;;;;;;21.57;15.63;;;24.30;99.90;;;;;;5013100;28;20413;-83
2022/07/21 06:06:19;;;;;;;20.58;15.40;;;24.40;99.90;;;;;;5030685;28;20397;-83
2022/07/21 06:08:47;;;;;;;19.00;14.25;;;24.50;99.90;;;;;;5029430;28;20812;-83
2022/07/21 06:11:16;;;;;;;16.70;14.13;;;24.40;99.90;;;;;;5011947;28;20377;-84
2022/07/21 06:13:42;;;;;;;16.08;14.30;;;24.20;99.90;;;;;;5030600;28;20401;-83
2022/07/21 06:16:08;;;;;;;16.05;13.63;;;24.20;99.90;;;;;;5031347;28;20377;-83
2022/07/21 06:18:34;;;;;;;19.05;13.57;;;23.90;99.90;;;;;;5011695;28;20929;-83
2022/07/21 06:21:00;;;;;;;15.13;12.70;;;23.90;99.90;;;;;;5029416;28;20433;-82
2022/07/21 06:23:26;;;;;;;18.17;13.13;;;24.00;99.90;;;;;;5030450;28;20464;-83
2022/07/21 06:25:52;;;;;;;14.10;12.10;;;24.30;99.90;;;;;;5012460;28;20436;-82
2022/07/21 06:28:18;;;;;;;16.70;12.38;;;24.60;99.90;;;;;;5011854;28;20381;-82
2022/07/21 06:30:44;;;;;;;14.10;11.48;;;24.70;99.90;;;;;;5029608;28;20385;-83
2022/07/21 06:33:10;;;;;;;14.00;12.30;;;24.80;99.90;;;;;;5030789;28;20397;-83
2022/07/21 06:35:36;;;;;;;14.18;11.65;;;25.00;99.90;;;;;;5015622;28;20918;-81
2022/07/21 06:38:02;;;;;;;19.85;11.88;;;25.20;99.90;;;;;;5033939;28;20377;-81
2022/07/21 06:40:28;;;;;;;16.07;11.53;;;25.50;99.70;;;;;;5034243;28;20798;-84
2022/07/21 06:42:54;;;;;;;16.35;11.95;;;25.80;99.10;;;;;;5033607;28;20388;-83
2022/07/21 06:45:20;;;;;;;13.60;11.50;;;26.20;99.10;;;;;;5033524;28;20401;-84
2022/07/21 06:47:46;;;;;;;15.73;11.00;;;26.60;98.50;;;;;;5033423;28;20378;-82
2022/07/21 06:50:11;;;;;;;14.67;11.60;;;26.90;97.60;;;;;;5015433;28;20476;-84
2022/07/21 06:52:38;;;;;;;13.18;11.43;;;27.00;96.80;;;;;;5032472;28;20377;-84
2022/07/21 06:55:05;;;;;;;13.15;11.05;;;27.20;96.70;;;;;;5015900;28;20862;-83
2022/07/21 06:57:32;;;;;;;13.93;10.80;;;27.40;95.90;;;;;;5015149;28;20377;-84
2022/07/21 06:59:58;;;;;;;20.95;11.70;;;27.60;96.30;;;;;;5015235;28;20401;-85
2022/07/21 07:02:23;;;;;;;15.18;11.07;;;27.80;95.90;;;;;;5014722;28;20378;-83
2022/07/21 07:04:49;;;;;;;15.67;10.93;;;27.90;95.30;;;;;;5032767;28;20888;-85
2022/07/21 07:07:15;;;;;;;12.93;10.73;;;27.80;94.90;;;;;;5032577;28;20459;-83
2022/07/21 07:09:41;;;;;;;14.10;10.97;;;27.90;95.30;;;;;;5032276;28;20445;-85
2022/07/21 07:12:08;;;;;;;13.73;10.80;;;28.00;95.10;;;;;;5032041;28;20890;-84
2022/07/21 07:14:35;;;;;;;13.18;10.45;;;28.30;94.80;;;;;;5015433;28;20389;-82
2022/07/21 07:17:03;;;;;;;13.80;10.68;;;28.60;94.50;;;;;;5032562;28;20390;-83
2022/07/21 07:19:29;;;;;;;13.10;10.95;;;28.60;94.20;;;;;;5013935;28;20475;-83
2022/07/21 07:21:55;;;;;;;16.42;10.88;;;28.50;94.30;;;;;;5031828;28;20413;-83
2022/07/21 07:24:21;;;;;;;15.32;10.88;;;28.50;93.90;;;;;;5032059;28;20453;-83
2022/07/21 07:26:48;;;;;;;13.38;10.50;;;28.40;94.30;;;;;;5032235;28;20465;-84
2022/07/21 07:29:14;;;;;;;13.57;9.87;;;28.50;94.20;;;;;;5032594;28;20377;-83
2022/07/21 07:31:39;;;;;;;13.25;10.48;;;28.50;94.70;;;;;;5014514;28;20417;-82
2022/07/21 07:34:06;;;;;;;12.43;10.25;;;28.50;94.80;;;;;;5030509;28;20796;-83
2022/07/21 07:36:31;;;;;;;11.88;9.75;;;28.50;94.40;;;;;;5012923;28;20419;-83
2022/07/21 07:38:58;;;;;;;15.98;9.90;;;28.60;94.00;;;;;;5013974;28;20467;-83
2022/07/21 07:41:25;;;;;;;13.40;9.88;;;28.50;94.30;;;;;;5031056;28;20404;-85
2022/07/21 07:43:54;;;;;;;19.65;10.95;;;28.50;94.00;;;;;;5031011;28;20381;-85
2022/07/21 07:46:19;;;;;;;14.13;10.65;;;28.50;95.00;;;;;;5016331;28;20405;-84
2022/07/21 07:48:47;;;;;;;14.50;10.40;;;28.70;95.00;;;;;;5031775;28;20373;-82
2022/07/21 07:51:13;;;;;;;13.80;10.18;;;28.70;94.20;;;;;;5013307;28;20563;-84
2022/07/21 07:53:39;;;;;;;16.02;10.13;;;28.50;94.20;;;;;;5031542;28;20378;-82
2022/07/21 07:56:06;;;;;;;14.93;9.77;;;28.60;94.20;;;;;;5031143;28;20405;-85
2022/07/21 07:58:32;;;;;;;13.68;10.05;;;28.60;95.10;;;;;;5013423;28;21017;-84
2022/07/21 08:00:58;;;;;;;14.10;10.07;;;28.90;94.10;;;;;;5031023;28;20401;-84
2022/07/21 08:03:24;;;;;;;13.55;10.32;;;28.80;93.50;;;;;;5031770;28;20374;-86
2022/07/21 08:05:51;;;;;;;15.03;10.80;;;28.50;93.40;;;;;;5031497;28;20451;-82
2022/07/21 08:08:17;;;;;;;12.43;10.20;;;28.20;94.20;;;;;;5013997;28;20413;-85
2022/07/21 08:10:45;;;;;;;11.85;9.82;;;28.00;94.80;;;;;;5033669;28;20394;-84
2022/07/21 08:13:13;;;;;;;13.05;9.88;;;28.30;94.80;;;;;;5031885;28;20382;-84
2022/07/21 08:15:39;;;;;;;13.60;9.45;;;28.70;94.30;;;;;;5031998;28;20416;-83
2022/07/21 08:18:05;;;;;;;14.10;10.30;;;28.90;93.40;;;;;;5039475;28;20399;-84
2022/07/21 08:20:31;;;;;;;12.40;9.93;;;28.90;93.10;;;;;;5024303;28;20403;-85
2022/07/21 08:22:56;;;;;;;12.35;10.13;;;28.80;93.80;;;;;;5037165;28;20385;-84
2022/07/21 08:25:22;;;;;;;13.00;9.77;;;28.60;93.70;;;;;;5013016;28;20385;-83
2022/07/21 08:27:48;;;;;;;13.70;9.57;;;28.60;93.60;;;;;;5036067;28;20392;-83
2022/07/21 08:30:14;;;;;;;14.93;9.80;;;28.60;94.20;;;;;;5051244;28;20379;-81
2022/07/21 08:32:40;;;;;;;14.33;9.33;;;28.50;94.00;;;;;;4993481;28;20386;-85
2022/07/21 08:35:08;;;;;;;11.35;9.15;;;28.60;94.00;;;;;;5000511;28;20407;-83
2022/07/21 08:37:38;;;;;;;20.80;9.88;;;28.90;93.90;;;;;;5042374;28;20728;-82
2022/07/21 08:40:06;;;;;;;13.77;9.33;;;29.10;93.40;;;;;;5012810;28;20775;-83
2022/07/21 08:42:31;;;;;;;15.15;9.10;;;29.30;92.90;;;;;;5030104;28;20463;-85
2022/07/21 08:44:57;;;;;;;13.55;9.18;;;29.60;93.00;;;;;;5030468;28;20805;-84
2022/07/21 08:47:25;;;;;;;11.75;8.68;;;30.00;91.90;;;;;;5012270;28;20862;-82
2022/07/21 08:49:50;;;;;;;11.13;9.02;;;30.40;90.80;;;;;;5012693;28;20782;-83
2022/07/21 08:52:18;;;;;;;13.52;8.77;;;30.70;91.40;;;;;;5012870;28;20401;-82
2022/07/21 08:54:44;;;;;;;9.38;7.82;;;30.80;90.90;;;;;;5030437;28;20382;-84
2022/07/21 08:57:10;;;;;;;9.37;8.00;;;31.00;89.90;;;;;;5029678;28;20386;-84
2022/07/21 08:59:36;;;;;;;12.20;8.50;;;30.90;90.20;;;;;;5030086;28;20460;-85
2022/07/21 09:02:03;;;;;;;10.70;8.13;;;30.60;90.70;;;;;;5044505;28;20415;-84
2022/07/21 09:04:34;;;;;;;10.45;8.07;;;30.60;90.10;;;;;;5049990;28;20400;-85
2022/07/21 09:07:02;;;;;;;10.20;7.47;;;30.50;90.10;;;;;;5032200;28;20410;-85
2022/07/21 09:09:29;;;;;;;9.38;7.03;;;30.60;90.40;;;;;;5032944;28;20446;-82
2022/07/21 09:11:56;;;;;;;8.85;6.75;;;30.70;90.00;;;;;;5032120;28;20470;-82
2022/07/21 09:14:25;;;;;;;7.77;6.87;;;30.80;89.20;;;;;;5050123;28;20379;-85
2022/07/21 09:16:53;;;;;;;9.15;7.20;;;30.70;89.80;;;;;;5031254;28;20426;-84
2022/07/21 09:19:21;;;;;;;14.37;7.67;;;30.80;89.70;;;;;;5049667;28;20375;-82
2022/07/21 09:21:49;;;;;;;10.40;6.70;;;30.60;88.80;;;;;;5031287;28;20408;-84
2022/07/21 09:24:17;;;;;;;7.95;6.20;;;30.70;88.20;;;;;;5032149;28;20375;-81
2022/07/21 09:27:21;;;;;;;10.60;6.22;;;30.80;88.20;;;;;;5050211;28;20379;-86
2022/07/21 09:29:58;;;;;;;7.88;5.85;;;30.70;86.70;;;;;;5046390;28;20429;-83
2022/07/21 09:32:29;;;;;;;7.63;5.78;;;30.80;87.80;;;;;;5048775;28;20415;-84
2022/07/21 09:35:14;;;;;;;9.82;5.82;;;30.90;87.00;;;;;;5031043;28;20433;-83
2022/07/21 09:37:41;;;;;;;5.60;5.03;;;30.70;86.70;;;;;;5029044;28;20412;-84
2022/07/21 09:40:13;;;;;;;8.50;5.30;;;30.80;86.90;;;;;;5011816;28;20413;-85
2022/07/21 09:42:50;;;;;;;6.55;5.20;;;30.90;85.80;;;;;;5019130;28;20403;-83
2022/07/21 09:45:18;;;;;;;6.35;4.50;;;31.10;85.70;;;;;;5031347;28;20394;-85
2022/07/21 09:47:45;;;;;;;6.50;4.70;;;31.20;87.10;;;;;;5030952;28;20486;-83
2022/07/21 09:50:13;;;;;;;8.15;4.75;;;31.40;85.20;;;;;;5011968;28;20802;-81
2022/07/21 09:52:46;;;;;;;5.97;4.20;;;31.30;84.60;;;;;;5011731;28;20378;-83
2022/07/21 09:55:16;;;;;;;6.75;4.22;;;31.10;83.80;;;;;;4995922;28;20401;-84
2022/07/21 09:57:44;;;;;;;8.10;4.47;;;31.20;85.90;;;;;;5029701;28;20420;-84
2022/07/21 10:00:16;;;;;;;8.82;4.53;;;31.40;84.10;;;;;;5037526;28;20754;-83
2022/07/21 10:02:43;;;;;;;6.50;4.03;;;31.40;83.30;;;;;;5017749;28;20843;-84
2022/07/21 10:05:12;;;;;;;7.15;4.07;;;31.60;83.40;;;;;;5028849;28;20397;-86
2022/07/21 10:07:41;;;;;;;5.00;4.22;;;31.60;84.30;;;;;;5013527;28;20744;-82
2022/07/21 10:10:08;;;;;;;7.60;4.20;;;31.30;84.00;;;;;;5048767;28;20906;-84
2022/07/21 10:12:34;;;;;;;6.30;4.63;;;31.40;83.10;;;;;;5033216;28;20400;-86
2022/07/21 10:15:00;;;;;;;8.35;4.50;;;31.50;82.60;;;;;;5016451;28;20447;-85
2022/07/21 10:17:26;;;;;;;9.18;4.47;;;31.30;83.80;;;;;;5013965;28;20393;-83
2022/07/21 10:20:24;;;;;;;6.32;4.70;;;31.20;84.10;;;;;;5013557;28;20462;-83
2022/07/21 10:23:09;;;;;;;6.47;4.97;;;30.60;84.80;;;;;;4979304;28;20391;-81
2022/07/21 10:25:36;;;;;;;8.07;5.15;;;30.50;86.30;;;;;;5008602;28;20385;-84
2022/07/21 10:28:10;;;;;;;9.23;4.93;;;30.30;86.50;;;;;;5029326;28;20875;-86
2022/07/21 10:30:47;;;;;;;8.80;4.88;;;30.10;86.80;;;;;;5029171;28;20590;-82
2022/07/21 10:33:14;;;;;;;8.70;5.28;;;29.70;86.50;;;;;;5016506;28;20397;-84
2022/07/21 10:35:46;;;;;;;10.25;5.50;;;29.30;89.90;;;;;;5032195;28;20484;-84
2022/07/21 10:38:41;;;;;;;7.50;5.32;;;29.00;90.20;;;;;;5035623;28;20378;-82
2022/07/21 10:41:06;;;;;;;7.05;5.00;;;28.70;90.50;;;;;;5002022;28;20439;-82
2022/07/21 10:43:37;;;;;;;10.07;5.53;;;28.60;92.50;;;;;;5010346;28;20389;-83
2022/07/21 10:46:03;;;;;;;6.15;4.55;;;28.50;92.10;;;;;;5011834;28;20771;-84
2022/07/21 10:48:38;;;;;;;7.40;5.32;;;28.60;92.60;;;;;;5008609;28;20394;-83
2022/07/21 10:51:08;;;;;;;9.95;5.30;;;28.80;91.40;;;;;;5032308;28;20472;-84
2022/07/21 10:53:33;;;;;;;7.75;5.10;;;28.80;90.70;;;;;;5032577;28;20469;-84
2022/07/21 10:56:00;;;;;;;8.87;5.23;;;29.00;90.20;;;;;;5008441;28;20494;-85
2022/07/21 10:58:47;;;;;;;6.55;5.00;;;29.10;90.30;;;;;;5038431;28;20375;-85
2022/07/21 11:01:15;;;;;;;9.93;4.90;;;29.00;88.80;;;;;;5036006;28;20417;-84
2022/07/21 11:03:42;;;;;;;7.55;5.00;;;28.90;89.20;;;;;;5032042;28;20385;-86
2022/07/21 11:06:29;;;;;;;6.63;4.68;;;28.90;89.00;;;;;;5031246;28;20393;-83
2022/07/21 11:09:04;;;;;;;5.60;4.60;;;28.90;88.70;;;;;;4995643;28;20426;-84
2022/07/21 11:11:36;;;;;;;7.85;4.57;;;29.10;88.50;;;;;;5006673;28;20394;-84
2022/07/21 11:14:17;;;;;;;6.68;4.47;;;29.40;88.10;;;;;;5017868;28;20628;-84
2022/07/21 11:16:49;;;;;;;8.38;4.78;;;29.60;86.60;;;;;;5009456;28;20397;-85
2022/07/21 11:19:38;;;;;;;9.70;4.20;;;29.70;86.90;;;;;;5036842;28;20402;-84
2022/07/21 11:22:13;;;;;;;6.75;4.25;;;29.80;86.10;;;;;;5014829;28;20528;-83
2022/07/21 11:24:43;;;;;;;9.70;4.93;;;29.60;84.70;;;;;;5028951;28;20389;-85
2022/07/21 11:27:11;;;;;;;10.13;5.00;;;29.40;85.90;;;;;;5010968;28;20396;-85
2022/07/21 11:29:39;;;;;;;11.70;4.55;;;29.40;87.20;;;;;;5012920;28;20398;-83
2022/07/21 11:32:06;;;;;;;8.13;4.80;;;29.30;87.90;;;;;;5031390;28;20879;-83
2022/07/21 11:34:43;;;;;;;7.15;4.53;;;29.20;88.90;;;;;;5009060;28;20392;-83
2022/07/21 11:37:10;;;;;;;7.53;4.43;;;29.20;89.40;;;;;;4998427;28;20397;-86
2022/07/21 11:39:37;;;;;;;9.98;5.05;;;29.00;88.70;;;;;;5015683;28;20384;-83
2022/07/21 11:42:05;;;;;;;10.32;4.80;;;29.00;89.90;;;;;;5019458;28;20382;-83
2022/07/21 11:44:31;;;;;;;7.88;4.40;;;28.90;90.50;;;;;;5012753;28;20485;-84
2022/07/21 11:46:59;;;;;;;7.38;4.65;;;28.80;91.80;;;;;;5030699;28;20443;-84
2022/07/21 11:49:25;;;;;;;11.25;5.10;;;28.80;91.60;;;;;;5011231;28;20401;-84
2022/07/21 11:52:03;;;;;;;9.48;4.80;;;28.60;91.60;;;;;;5011874;28;20377;-86
2022/07/21 11:54:34;;;;;;;6.78;5.00;;;28.60;92.10;;;;;;5012894;28;20392;-85
2022/07/21 11:57:01;;;;;;;7.50;5.03;;;28.60;91.70;;;;;;5012229;28;20399;-85
2022/07/21 11:59:28;;;;;;;7.80;4.78;;;28.60;91.90;;;;;;5012144;28;20902;-84
2022/07/21 12:02:00;;;;;;;9.50;5.20;;;28.50;91.90;;;;;;5012475;28;20866;-84
2022/07/21 12:04:32;;;;;;;9.10;5.13;;;28.40;92.20;;;;;;5013422;28;20757;-85
2022/07/21 12:06:59;;;;;;;10.50;5.27;;;28.10;93.40;;;;;;5030696;28;20790;-84
2022/07/21 12:09:25;;;;;;;9.23;5.25;;;27.90;94.00;;;;;;5031402;28;20381;-86
2022/07/21 12:11:51;;;;;;;9.77;5.43;;;27.80;95.70;;;;;;5012747;28;20428;-85
2022/07/21 12:14:17;;;;;;;9.70;6.10;;;27.50;96.50;;;;;;5031008;28;20705;-85
2022/07/21 12:16:50;;;;;;;9.82;5.47;;;27.30;97.20;;;;;;5013146;28;20744;-85
2022/07/21 12:19:17;;;;;;;9.38;5.93;;;27.00;97.10;;;;;;5030848;28;20381;-85
2022/07/21 12:21:51;;;;;;;6.68;5.57;;;26.90;98.20;;;;;;5012368;28;20571;-84
2022/07/21 12:24:18;;;;;;;7.97;6.13;;;26.80;99.70;;;;;;5012167;28;20893;-84
2022/07/21 12:26:44;;;;;;;6.45;5.15;;;26.80;97.70;;;;;;5012521;28;20468;-85
2022/07/21 12:29:10;;;;;;;8.30;6.00;;;26.70;98.90;;;;;;5012685;28;20408;-85
2022/07/21 12:31:37;;;;;;;8.13;5.90;;;26.60;99.30;;;;;;5030471;28;20931;-85
2022/07/21 12:34:14;;;;;;;9.10;6.43;;;26.50;99.80;;;;;;5030498;28;20378;-85
2022/07/21 12:36:42;;;;;;;10.10;6.40;;;26.40;99.90;;;;;;5012558;28;20450;-85
2022/07/21 12:42:11;;;;;;;9.27;6.00;;;26.40;99.90;;;;;;5028835;28;20385;-84
2022/07/21 12:44:37;;;;;;;12.00;6.43;;;26.60;99.90;;;;;;5012986;28;20382;-84
2022/07/21 12:47:20;;;;;;;8.15;5.95;;;26.70;99.90;;;;;;5028654;28;20384;-84